sensor_id;sensor_type;location;lat;lon;timestamp;pressure;altitude;pressure_sealevel;temperature
19040;BMP180;9652;49.014;12.052;2022-09-01T00:01:47;98167.00;;;19.20
19040;BMP180;9652;49.014;12.052;2022-09-01T00:04:19;98164.00;;;19.20
19040;BMP180;9652;49.014;12.052;2022-09-01T00:06:48;98156.00;;;19.20
19040;BMP180;9652;49.014;12.052;2022-09-01T00:09:18;98169.00;;;19.20
19040;BMP180;9652;49.014;12.052;2022-09-01T00:11:49;98158.00;;;19.10
19040;BMP180;9652;49.014;12.052;2022-09-01T00:14:19;98161.00;;;19.10
19040;BMP180;9652;49.014;12.052;2022-09-01T00:16:47;98163.00;;;19.10
19040;BMP180;9652;49.014;12.052;2022-09-01T00:19:14;98156.00;;;19.00
19040;BMP180;9652;49.014;12.052;2022-09-01T00:21:44;98135.00;;;19.00
19040;BMP180;9652;49.014;12.052;2022-09-01T00:24:16;98162.00;;;19.00
19040;BMP180;9652;49.014;12.052;2022-09-01T00:26:43;98160.00;;;19.00
19040;BMP180;9652;49.014;12.052;2022-09-01T00:29:11;98156.00;;;19.00
19040;BMP180;9652;49.014;12.052;2022-09-01T00:31:39;98161.00;;;19.00
19040;BMP180;9652;49.014;12.052;2022-09-01T00:34:07;98157.00;;;19.00
19040;BMP180;9652;49.014;12.052;2022-09-01T00:36:34;98147.00;;;18.90
19040;BMP180;9652;49.014;12.052;2022-09-01T00:39:03;98150.00;;;18.90
19040;BMP180;9652;49.014;12.052;2022-09-01T00:41:35;98147.00;;;19.00
19040;BMP180;9652;49.014;12.052;2022-09-01T00:44:06;98147.00;;;19.00
19040;BMP180;9652;49.014;12.052;2022-09-01T00:46:38;98152.00;;;19.00
19040;BMP180;9652;49.014;12.052;2022-09-01T00:49:11;98152.00;;;19.00
19040;BMP180;9652;49.014;12.052;2022-09-01T00:51:44;98118.00;;;19.00
19040;BMP180;9652;49.014;12.052;2022-09-01T00:54:19;98138.00;;;19.00
19040;BMP180;9652;49.014;12.052;2022-09-01T00:56:49;98140.00;;;19.00
19040;BMP180;9652;49.014;12.052;2022-09-01T00:59:19;98154.00;;;19.10
19040;BMP180;9652;49.014;12.052;2022-09-01T01:01:46;98144.00;;;19.10
19040;BMP180;9652;49.014;12.052;2022-09-01T01:04:14;98132.00;;;19.10
19040;BMP180;9652;49.014;12.052;2022-09-01T01:06:43;98125.00;;;19.00
19040;BMP180;9652;49.014;12.052;2022-09-01T01:09:15;98130.00;;;19.10
19040;BMP180;9652;49.014;12.052;2022-09-01T01:11:43;98071.00;;;19.00
19040;BMP180;9652;49.014;12.052;2022-09-01T01:14:15;98133.00;;;19.00
19040;BMP180;9652;49.014;12.052;2022-09-01T01:16:46;98125.00;;;19.00
19040;BMP180;9652;49.014;12.052;2022-09-01T01:19:22;98137.00;;;19.00
19040;BMP180;9652;49.014;12.052;2022-09-01T01:22:17;98132.00;;;19.00
19040;BMP180;9652;49.014;12.052;2022-09-01T01:25:04;98137.00;;;19.00
19040;BMP180;9652;49.014;12.052;2022-09-01T01:27:34;98130.00;;;18.90
19040;BMP180;9652;49.014;12.052;2022-09-01T01:30:05;98129.00;;;18.90
19040;BMP180;9652;49.014;12.052;2022-09-01T01:32:35;98136.00;;;19.00
19040;BMP180;9652;49.014;12.052;2022-09-01T01:35:04;98111.00;;;19.00
19040;BMP180;9652;49.014;12.052;2022-09-01T01:37:33;98106.00;;;19.00
19040;BMP180;9652;49.014;12.052;2022-09-01T01:40:04;98123.00;;;19.00
19040;BMP180;9652;49.014;12.052;2022-09-01T01:42:32;98117.00;;;19.00
19040;BMP180;9652;49.014;12.052;2022-09-01T01:44:59;98121.00;;;19.00
19040;BMP180;9652;49.014;12.052;2022-09-01T01:47:26;98114.00;;;19.00
19040;BMP180;9652;49.014;12.052;2022-09-01T01:49:53;98110.00;;;19.00
19040;BMP180;9652;49.014;12.052;2022-09-01T01:52:21;98125.00;;;19.00
19040;BMP180;9652;49.014;12.052;2022-09-01T01:54:49;98126.00;;;19.00
19040;BMP180;9652;49.014;12.052;2022-09-01T01:57:18;98124.00;;;19.00
19040;BMP180;9652;49.014;12.052;2022-09-01T01:59:45;98127.00;;;19.00
19040;BMP180;9652;49.014;12.052;2022-09-01T02:02:12;98118.00;;;19.00
19040;BMP180;9652;49.014;12.052;2022-09-01T02:04:39;98130.00;;;19.00
19040;BMP180;9652;49.014;12.052;2022-09-01T02:07:11;98122.00;;;19.00
19040;BMP180;9652;49.014;12.052;2022-09-01T02:09:39;98113.00;;;19.00
19040;BMP180;9652;49.014;12.052;2022-09-01T02:12:11;98112.00;;;19.00
19040;BMP180;9652;49.014;12.052;2022-09-01T02:14:39;98110.00;;;19.00
19040;BMP180;9652;49.014;12.052;2022-09-01T02:17:06;98105.00;;;19.00
19040;BMP180;9652;49.014;12.052;2022-09-01T02:19:35;98056.00;;;19.00
19040;BMP180;9652;49.014;12.052;2022-09-01T02:22:03;98102.00;;;19.00
19040;BMP180;9652;49.014;12.052;2022-09-01T02:24:30;98099.00;;;19.00
19040;BMP180;9652;49.014;12.052;2022-09-01T02:26:57;98093.00;;;19.00
19040;BMP180;9652;49.014;12.052;2022-09-01T02:29:27;98100.00;;;19.00
19040;BMP180;9652;49.014;12.052;2022-09-01T02:31:56;98087.00;;;18.90
19040;BMP180;9652;49.014;12.052;2022-09-01T02:34:25;98094.00;;;18.90
19040;BMP180;9652;49.014;12.052;2022-09-01T02:36:55;98096.00;;;18.90
19040;BMP180;9652;49.014;12.052;2022-09-01T02:39:26;98103.00;;;18.90
19040;BMP180;9652;49.014;12.052;2022-09-01T02:41:55;98097.00;;;18.90
19040;BMP180;9652;49.014;12.052;2022-09-01T02:44:25;98097.00;;;18.90
19040;BMP180;9652;49.014;12.052;2022-09-01T02:46:55;98082.00;;;18.80
19040;BMP180;9652;49.014;12.052;2022-09-01T02:49:25;98093.00;;;18.80
19040;BMP180;9652;49.014;12.052;2022-09-01T02:51:55;98081.00;;;18.80
19040;BMP180;9652;49.014;12.052;2022-09-01T02:54:25;98095.00;;;18.80
19040;BMP180;9652;49.014;12.052;2022-09-01T02:56:53;98102.00;;;18.80
19040;BMP180;9652;49.014;12.052;2022-09-01T02:59:26;98083.00;;;18.80
19040;BMP180;9652;49.014;12.052;2022-09-01T03:01:59;98085.00;;;18.80
19040;BMP180;9652;49.014;12.052;2022-09-01T03:04:27;98070.00;;;18.80
19040;BMP180;9652;49.014;12.052;2022-09-01T03:07:00;98090.00;;;18.80
19040;BMP180;9652;49.014;12.052;2022-09-01T03:09:27;98091.00;;;18.80
19040;BMP180;9652;49.014;12.052;2022-09-01T03:11:55;98095.00;;;18.80
19040;BMP180;9652;49.014;12.052;2022-09-01T03:14:24;98097.00;;;18.80
19040;BMP180;9652;49.014;12.052;2022-09-01T03:16:52;98098.00;;;18.80
19040;BMP180;9652;49.014;12.052;2022-09-01T03:19:21;98088.00;;;18.80
19040;BMP180;9652;49.014;12.052;2022-09-01T03:21:48;98085.00;;;18.80
19040;BMP180;9652;49.014;12.052;2022-09-01T03:24:20;98081.00;;;18.80
19040;BMP180;9652;49.014;12.052;2022-09-01T03:26:50;98073.00;;;18.80
19040;BMP180;9652;49.014;12.052;2022-09-01T03:29:18;98067.00;;;18.80
19040;BMP180;9652;49.014;12.052;2022-09-01T03:31:46;98080.00;;;18.80
19040;BMP180;9652;49.014;12.052;2022-09-01T03:34:13;98086.00;;;18.80
19040;BMP180;9652;49.014;12.052;2022-09-01T03:36:47;98087.00;;;18.80
19040;BMP180;9652;49.014;12.052;2022-09-01T03:39:19;98086.00;;;18.80
19040;BMP180;9652;49.014;12.052;2022-09-01T03:41:46;98088.00;;;18.80
19040;BMP180;9652;49.014;12.052;2022-09-01T03:44:14;98084.00;;;18.80
19040;BMP180;9652;49.014;12.052;2022-09-01T03:46:43;98072.00;;;18.80
19040;BMP180;9652;49.014;12.052;2022-09-01T03:49:11;98063.00;;;18.80
19040;BMP180;9652;49.014;12.052;2022-09-01T03:51:52;98059.00;;;18.80
19040;BMP180;9652;49.014;12.052;2022-09-01T03:54:19;98087.00;;;18.80
19040;BMP180;9652;49.014;12.052;2022-09-01T03:56:49;98082.00;;;18.80
19040;BMP180;9652;49.014;12.052;2022-09-01T03:59:17;98082.00;;;18.80
19040;BMP180;9652;49.014;12.052;2022-09-01T04:01:46;98088.00;;;18.80
19040;BMP180;9652;49.014;12.052;2022-09-01T04:04:14;98089.00;;;18.80
19040;BMP180;9652;49.014;12.052;2022-09-01T04:06:44;98104.00;;;18.80
19040;BMP180;9652;49.014;12.052;2022-09-01T04:09:14;98087.00;;;18.70
19040;BMP180;9652;49.014;12.052;2022-09-01T04:11:43;98079.00;;;18.80
19040;BMP180;9652;49.014;12.052;2022-09-01T04:14:13;98101.00;;;18.70
19040;BMP180;9652;49.014;12.052;2022-09-01T04:16:43;98091.00;;;18.70
19040;BMP180;9652;49.014;12.052;2022-09-01T04:19:28;98092.00;;;18.70
19040;BMP180;9652;49.014;12.052;2022-09-01T04:21:59;98086.00;;;18.70
19040;BMP180;9652;49.014;12.052;2022-09-01T04:24:35;98035.00;;;18.70
19040;BMP180;9652;49.014;12.052;2022-09-01T04:27:06;98099.00;;;18.70
19040;BMP180;9652;49.014;12.052;2022-09-01T04:29:35;98103.00;;;18.70
19040;BMP180;9652;49.014;12.052;2022-09-01T04:32:05;98101.00;;;18.70
19040;BMP180;9652;49.014;12.052;2022-09-01T04:34:36;98098.00;;;18.60
19040;BMP180;9652;49.014;12.052;2022-09-01T04:37:08;98109.00;;;18.60
19040;BMP180;9652;49.014;12.052;2022-09-01T04:39:40;98074.00;;;18.50
19040;BMP180;9652;49.014;12.052;2022-09-01T04:42:14;98091.00;;;18.40
19040;BMP180;9652;49.014;12.052;2022-09-01T04:44:43;98095.00;;;18.40
19040;BMP180;9652;49.014;12.052;2022-09-01T04:47:11;98099.00;;;18.50
19040;BMP180;9652;49.014;12.052;2022-09-01T04:49:44;98094.00;;;18.50
19040;BMP180;9652;49.014;12.052;2022-09-01T04:52:13;98096.00;;;18.50
19040;BMP180;9652;49.014;12.052;2022-09-01T04:54:42;98061.00;;;18.50
19040;BMP180;9652;49.014;12.052;2022-09-01T04:57:10;98096.00;;;18.60
19040;BMP180;9652;49.014;12.052;2022-09-01T04:59:38;98090.00;;;18.60
19040;BMP180;9652;49.014;12.052;2022-09-01T05:02:05;98086.00;;;18.60
19040;BMP180;9652;49.014;12.052;2022-09-01T05:04:35;98094.00;;;18.60
19040;BMP180;9652;49.014;12.052;2022-09-01T05:07:04;98094.00;;;18.70
19040;BMP180;9652;49.014;12.052;2022-09-01T05:09:37;98107.00;;;18.70
19040;BMP180;9652;49.014;12.052;2022-09-01T05:12:25;98102.00;;;18.70
19040;BMP180;9652;49.014;12.052;2022-09-01T05:14:52;98087.00;;;18.70
19040;BMP180;9652;49.014;12.052;2022-09-01T05:17:20;98095.00;;;18.80
19040;BMP180;9652;49.014;12.052;2022-09-01T05:19:51;98102.00;;;18.80
19040;BMP180;9652;49.014;12.052;2022-09-01T05:22:19;98099.00;;;18.80
19040;BMP180;9652;49.014;12.052;2022-09-01T05:24:55;98102.00;;;18.80
19040;BMP180;9652;49.014;12.052;2022-09-01T05:27:23;98092.00;;;18.80
19040;BMP180;9652;49.014;12.052;2022-09-01T05:29:51;98091.00;;;18.80
19040;BMP180;9652;49.014;12.052;2022-09-01T05:32:19;98106.00;;;18.80
19040;BMP180;9652;49.014;12.052;2022-09-01T05:34:46;98100.00;;;18.80
19040;BMP180;9652;49.014;12.052;2022-09-01T05:37:15;98095.00;;;18.80
19040;BMP180;9652;49.014;12.052;2022-09-01T05:39:42;98097.00;;;18.90
19040;BMP180;9652;49.014;12.052;2022-09-01T05:42:10;98097.00;;;18.90
19040;BMP180;9652;49.014;12.052;2022-09-01T05:44:39;98102.00;;;18.90
19040;BMP180;9652;49.014;12.052;2022-09-01T05:47:10;98089.00;;;18.90
19040;BMP180;9652;49.014;12.052;2022-09-01T05:49:38;98096.00;;;18.90
19040;BMP180;9652;49.014;12.052;2022-09-01T05:52:07;98097.00;;;18.90
19040;BMP180;9652;49.014;12.052;2022-09-01T05:54:36;98103.00;;;19.00
19040;BMP180;9652;49.014;12.052;2022-09-01T05:57:05;98093.00;;;19.00
19040;BMP180;9652;49.014;12.052;2022-09-01T05:59:32;98091.00;;;19.10
19040;BMP180;9652;49.014;12.052;2022-09-01T06:02:04;98095.00;;;18.90
19040;BMP180;9652;49.014;12.052;2022-09-01T06:04:37;98093.00;;;19.10
19040;BMP180;9652;49.014;12.052;2022-09-01T06:07:06;98110.00;;;19.10
19040;BMP180;9652;49.014;12.052;2022-09-01T06:09:37;98107.00;;;19.10
19040;BMP180;9652;49.014;12.052;2022-09-01T06:12:04;98102.00;;;19.20
19040;BMP180;9652;49.014;12.052;2022-09-01T06:14:32;98109.00;;;19.20
19040;BMP180;9652;49.014;12.052;2022-09-01T06:16:59;98108.00;;;19.20
19040;BMP180;9652;49.014;12.052;2022-09-01T06:19:27;98115.00;;;19.20
19040;BMP180;9652;49.014;12.052;2022-09-01T06:21:56;98110.00;;;19.20
19040;BMP180;9652;49.014;12.052;2022-09-01T06:24:23;98117.00;;;19.20
19040;BMP180;9652;49.014;12.052;2022-09-01T06:26:51;98117.00;;;19.20
19040;BMP180;9652;49.014;12.052;2022-09-01T06:29:19;98112.00;;;19.30
19040;BMP180;9652;49.014;12.052;2022-09-01T06:31:49;98123.00;;;19.30
19040;BMP180;9652;49.014;12.052;2022-09-01T06:34:19;98119.00;;;19.30
19040;BMP180;9652;49.014;12.052;2022-09-01T06:36:47;98120.00;;;19.30
19040;BMP180;9652;49.014;12.052;2022-09-01T06:39:19;98115.00;;;19.40
19040;BMP180;9652;49.014;12.052;2022-09-01T06:41:50;98118.00;;;19.40
19040;BMP180;9652;49.014;12.052;2022-09-01T06:44:22;98113.00;;;19.50
19040;BMP180;9652;49.014;12.052;2022-09-01T06:47:03;98116.00;;;19.50
19040;BMP180;9652;49.014;12.052;2022-09-01T06:49:34;98122.00;;;19.60
19040;BMP180;9652;49.014;12.052;2022-09-01T06:52:07;98127.00;;;19.70
19040;BMP180;9652;49.014;12.052;2022-09-01T06:54:38;98082.00;;;19.70
19040;BMP180;9652;49.014;12.052;2022-09-01T06:57:08;98132.00;;;19.70
19040;BMP180;9652;49.014;12.052;2022-09-01T06:59:36;98140.00;;;19.60
19040;BMP180;9652;49.014;12.052;2022-09-01T07:02:04;98126.00;;;19.60
19040;BMP180;9652;49.014;12.052;2022-09-01T07:04:50;98134.00;;;19.70
19040;BMP180;9652;49.014;12.052;2022-09-01T07:07:18;98134.00;;;19.70
19040;BMP180;9652;49.014;12.052;2022-09-01T07:10:07;98140.00;;;19.70
19040;BMP180;9652;49.014;12.052;2022-09-01T07:12:41;98146.00;;;19.80
19040;BMP180;9652;49.014;12.052;2022-09-01T07:15:11;98138.00;;;19.80
19040;BMP180;9652;49.014;12.052;2022-09-01T07:17:46;98144.00;;;19.80
19040;BMP180;9652;49.014;12.052;2022-09-01T07:20:16;98134.00;;;19.90
19040;BMP180;9652;49.014;12.052;2022-09-01T07:22:44;98149.00;;;19.90
19040;BMP180;9652;49.014;12.052;2022-09-01T07:25:13;98145.00;;;20.00
19040;BMP180;9652;49.014;12.052;2022-09-01T07:27:55;98151.00;;;20.10
19040;BMP180;9652;49.014;12.052;2022-09-01T07:30:22;98155.00;;;20.20
19040;BMP180;9652;49.014;12.052;2022-09-01T07:32:50;98154.00;;;20.30
19040;BMP180;9652;49.014;12.052;2022-09-01T07:35:20;98115.00;;;20.30
19040;BMP180;9652;49.014;12.052;2022-09-01T07:37:49;98154.00;;;20.30
19040;BMP180;9652;49.014;12.052;2022-09-01T07:40:19;98154.00;;;20.30
19040;BMP180;9652;49.014;12.052;2022-09-01T07:43:14;98156.00;;;20.30
19040;BMP180;9652;49.014;12.052;2022-09-01T07:46:03;98154.00;;;20.40
19040;BMP180;9652;49.014;12.052;2022-09-01T07:48:32;98146.00;;;20.40
19040;BMP180;9652;49.014;12.052;2022-09-01T07:51:00;98160.00;;;20.50
19040;BMP180;9652;49.014;12.052;2022-09-01T07:53:32;98114.00;;;20.60
19040;BMP180;9652;49.014;12.052;2022-09-01T07:56:06;98165.00;;;20.70
19040;BMP180;9652;49.014;12.052;2022-09-01T07:58:39;98170.00;;;20.80
19040;BMP180;9652;49.014;12.052;2022-09-01T08:01:09;98164.00;;;20.90
19040;BMP180;9652;49.014;12.052;2022-09-01T08:03:40;98181.00;;;21.00
19040;BMP180;9652;49.014;12.052;2022-09-01T08:06:09;98170.00;;;21.10
19040;BMP180;9652;49.014;12.052;2022-09-01T08:08:39;98174.00;;;21.20
19040;BMP180;9652;49.014;12.052;2022-09-01T08:11:08;98178.00;;;21.30
19040;BMP180;9652;49.014;12.052;2022-09-01T08:13:37;98179.00;;;21.30
19040;BMP180;9652;49.014;12.052;2022-09-01T08:16:06;98167.00;;;21.30
19040;BMP180;9652;49.014;12.052;2022-09-01T08:18:34;98170.00;;;21.40
19040;BMP180;9652;49.014;12.052;2022-09-01T08:21:06;98177.00;;;21.40
19040;BMP180;9652;49.014;12.052;2022-09-01T08:23:54;98185.00;;;21.60
19040;BMP180;9652;49.014;12.052;2022-09-01T08:26:26;98184.00;;;21.70
19040;BMP180;9652;49.014;12.052;2022-09-01T08:28:54;98189.00;;;21.70
19040;BMP180;9652;49.014;12.052;2022-09-01T08:31:28;98182.00;;;21.80
19040;BMP180;9652;49.014;12.052;2022-09-01T08:33:55;98179.00;;;21.80
19040;BMP180;9652;49.014;12.052;2022-09-01T08:36:23;98192.00;;;21.80
19040;BMP180;9652;49.014;12.052;2022-09-01T08:38:51;98169.00;;;21.80
19040;BMP180;9652;49.014;12.052;2022-09-01T08:41:34;98200.00;;;21.90
19040;BMP180;9652;49.014;12.052;2022-09-01T08:44:15;98167.00;;;21.90
19040;BMP180;9652;49.014;12.052;2022-09-01T08:46:47;98185.00;;;22.00
19040;BMP180;9652;49.014;12.052;2022-09-01T08:49:20;98191.00;;;22.10
19040;BMP180;9652;49.014;12.052;2022-09-01T08:52:21;98185.00;;;22.20
19040;BMP180;9652;49.014;12.052;2022-09-01T08:54:57;98195.00;;;22.20
19040;BMP180;9652;49.014;12.052;2022-09-01T08:57:34;98192.00;;;22.10
19040;BMP180;9652;49.014;12.052;2022-09-01T09:00:23;98199.00;;;22.10
19040;BMP180;9652;49.014;12.052;2022-09-01T09:03:07;98200.00;;;22.10
19040;BMP180;9652;49.014;12.052;2022-09-01T09:05:58;98200.00;;;22.00
19040;BMP180;9652;49.014;12.052;2022-09-01T09:08:50;98206.00;;;22.00
19040;BMP180;9652;49.014;12.052;2022-09-01T09:11:39;98202.00;;;21.90
19040;BMP180;9652;49.014;12.052;2022-09-01T09:14:19;98198.00;;;21.90
19040;BMP180;9652;49.014;12.052;2022-09-01T09:16:54;98199.00;;;21.90
19040;BMP180;9652;49.014;12.052;2022-09-01T09:19:26;98202.00;;;21.90
19040;BMP180;9652;49.014;12.052;2022-09-01T09:21:56;98201.00;;;22.00
19040;BMP180;9652;49.014;12.052;2022-09-01T09:24:29;98197.00;;;22.00
19040;BMP180;9652;49.014;12.052;2022-09-01T09:27:18;98196.00;;;22.00
19040;BMP180;9652;49.014;12.052;2022-09-01T09:29:49;98190.00;;;22.10
19040;BMP180;9652;49.014;12.052;2022-09-01T09:32:17;98194.00;;;22.20
19040;BMP180;9652;49.014;12.052;2022-09-01T09:34:45;98198.00;;;22.30
19040;BMP180;9652;49.014;12.052;2022-09-01T09:37:21;98198.00;;;22.40
19040;BMP180;9652;49.014;12.052;2022-09-01T09:40:07;98201.00;;;22.50
19040;BMP180;9652;49.014;12.052;2022-09-01T09:42:35;98197.00;;;22.70
19040;BMP180;9652;49.014;12.052;2022-09-01T09:45:24;98174.00;;;22.80
19040;BMP180;9652;49.014;12.052;2022-09-01T09:47:54;98195.00;;;23.00
19040;BMP180;9652;49.014;12.052;2022-09-01T09:50:25;98190.00;;;23.10
19040;BMP180;9652;49.014;12.052;2022-09-01T09:53:16;98199.00;;;23.10
19040;BMP180;9652;49.014;12.052;2022-09-01T09:55:58;98195.00;;;23.10
19040;BMP180;9652;49.014;12.052;2022-09-01T09:58:34;98196.00;;;23.10
19040;BMP180;9652;49.014;12.052;2022-09-01T10:01:09;98189.00;;;23.10
19040;BMP180;9652;49.014;12.052;2022-09-01T10:03:43;98178.00;;;23.10
19040;BMP180;9652;49.014;12.052;2022-09-01T10:06:31;98193.00;;;23.10
19040;BMP180;9652;49.014;12.052;2022-09-01T10:09:02;98192.00;;;23.20
19040;BMP180;9652;49.014;12.052;2022-09-01T10:11:36;98195.00;;;23.20
19040;BMP180;9652;49.014;12.052;2022-09-01T10:14:09;98182.00;;;23.30
19040;BMP180;9652;49.014;12.052;2022-09-01T10:16:39;98188.00;;;23.40
19040;BMP180;9652;49.014;12.052;2022-09-01T10:19:12;98187.00;;;23.50
19040;BMP180;9652;49.014;12.052;2022-09-01T10:21:43;98182.00;;;23.50
19040;BMP180;9652;49.014;12.052;2022-09-01T10:24:18;98175.00;;;23.60
19040;BMP180;9652;49.014;12.052;2022-09-01T10:26:54;98178.00;;;23.50
19040;BMP180;9652;49.014;12.052;2022-09-01T10:29:27;98192.00;;;23.70
19040;BMP180;9652;49.014;12.052;2022-09-01T10:32:01;98191.00;;;23.80
19040;BMP180;9652;49.014;12.052;2022-09-01T10:34:35;98208.00;;;23.80
19040;BMP180;9652;49.014;12.052;2022-09-01T10:37:04;98189.00;;;23.90
19040;BMP180;9652;49.014;12.052;2022-09-01T10:39:32;98190.00;;;23.90
19040;BMP180;9652;49.014;12.052;2022-09-01T10:42:01;98191.00;;;23.90
19040;BMP180;9652;49.014;12.052;2022-09-01T10:44:35;98190.00;;;23.90
19040;BMP180;9652;49.014;12.052;2022-09-01T10:47:10;98188.00;;;23.90
19040;BMP180;9652;49.014;12.052;2022-09-01T10:50:00;98185.00;;;23.90
19040;BMP180;9652;49.014;12.052;2022-09-01T10:53:07;98125.00;;;23.80
19040;BMP180;9652;49.014;12.052;2022-09-01T10:55:46;98190.00;;;23.80
19040;BMP180;9652;49.014;12.052;2022-09-01T11:02:09;98193.00;;;23.60
19040;BMP180;9652;49.014;12.052;2022-09-01T11:05:13;98188.00;;;23.50
19040;BMP180;9652;49.014;12.052;2022-09-01T11:07:41;98180.00;;;23.50
19040;BMP180;9652;49.014;12.052;2022-09-01T11:10:32;98173.00;;;23.50
19040;BMP180;9652;49.014;12.052;2022-09-01T11:13:29;98180.00;;;23.40
19040;BMP180;9652;49.014;12.052;2022-09-01T11:16:34;98186.00;;;23.50
19040;BMP180;9652;49.014;12.052;2022-09-01T11:19:37;98180.00;;;23.50
19040;BMP180;9652;49.014;12.052;2022-09-01T11:22:22;98177.00;;;23.60
19040;BMP180;9652;49.014;12.052;2022-09-01T11:28:34;98180.00;;;23.80
19040;BMP180;9652;49.014;12.052;2022-09-01T11:31:25;98169.00;;;23.90
19040;BMP180;9652;49.014;12.052;2022-09-01T11:34:15;98167.00;;;24.00
19040;BMP180;9652;49.014;12.052;2022-09-01T11:36:55;98171.00;;;24.10
19040;BMP180;9652;49.014;12.052;2022-09-01T11:39:37;98166.00;;;24.20
19040;BMP180;9652;49.014;12.052;2022-09-01T11:42:10;98171.00;;;24.30
19040;BMP180;9652;49.014;12.052;2022-09-01T11:44:46;98145.00;;;24.40
19040;BMP180;9652;49.014;12.052;2022-09-01T11:47:19;98166.00;;;24.60
19040;BMP180;9652;49.014;12.052;2022-09-01T11:49:52;98164.00;;;24.70
19040;BMP180;9652;49.014;12.052;2022-09-01T11:52:24;98162.00;;;24.80
19040;BMP180;9652;49.014;12.052;2022-09-01T11:54:51;98147.00;;;24.90
19040;BMP180;9652;49.014;12.052;2022-09-01T11:57:25;98163.00;;;24.90
19040;BMP180;9652;49.014;12.052;2022-09-01T11:59:53;98165.00;;;25.00
19040;BMP180;9652;49.014;12.052;2022-09-01T12:02:25;98156.00;;;25.10
19040;BMP180;9652;49.014;12.052;2022-09-01T12:04:55;98154.00;;;25.20
19040;BMP180;9652;49.014;12.052;2022-09-01T12:07:39;98134.00;;;25.30
19040;BMP180;9652;49.014;12.052;2022-09-01T12:10:19;98148.00;;;25.40
19040;BMP180;9652;49.014;12.052;2022-09-01T12:12:48;98151.00;;;25.50
19040;BMP180;9652;49.014;12.052;2022-09-01T12:15:25;98147.00;;;25.50
19040;BMP180;9652;49.014;12.052;2022-09-01T12:18:11;98151.00;;;25.60
19040;BMP180;9652;49.014;12.052;2022-09-01T12:20:40;98144.00;;;25.60
19040;BMP180;9652;49.014;12.052;2022-09-01T12:23:22;98145.00;;;25.50
19040;BMP180;9652;49.014;12.052;2022-09-01T12:25:50;98141.00;;;25.50
19040;BMP180;9652;49.014;12.052;2022-09-01T12:28:21;98142.00;;;25.50
19040;BMP180;9652;49.014;12.052;2022-09-01T12:30:50;98136.00;;;25.50
19040;BMP180;9652;49.014;12.052;2022-09-01T12:33:19;98129.00;;;25.50
19040;BMP180;9652;49.014;12.052;2022-09-01T12:35:48;98137.00;;;25.60
19040;BMP180;9652;49.014;12.052;2022-09-01T12:38:27;98142.00;;;25.70
19040;BMP180;9652;49.014;12.052;2022-09-01T12:40:56;98132.00;;;25.80
19040;BMP180;9652;49.014;12.052;2022-09-01T12:43:33;98139.00;;;25.90
19040;BMP180;9652;49.014;12.052;2022-09-01T12:46:03;98141.00;;;26.00
19040;BMP180;9652;49.014;12.052;2022-09-01T12:48:34;98141.00;;;26.10
19040;BMP180;9652;49.014;12.052;2022-09-01T12:51:15;98126.00;;;26.20
19040;BMP180;9652;49.014;12.052;2022-09-01T12:53:52;98140.00;;;26.30
19040;BMP180;9652;49.014;12.052;2022-09-01T12:56:26;98142.00;;;26.30
19040;BMP180;9652;49.014;12.052;2022-09-01T12:59:07;98152.00;;;26.50
19040;BMP180;9652;49.014;12.052;2022-09-01T13:01:36;98145.00;;;26.50
19040;BMP180;9652;49.014;12.052;2022-09-01T13:04:22;98151.00;;;26.40
19040;BMP180;9652;49.014;12.052;2022-09-01T13:06:52;98153.00;;;26.40
19040;BMP180;9652;49.014;12.052;2022-09-01T13:09:19;98145.00;;;26.30
19040;BMP180;9652;49.014;12.052;2022-09-01T13:11:46;98145.00;;;26.30
19040;BMP180;9652;49.014;12.052;2022-09-01T13:14:15;98143.00;;;26.20
19040;BMP180;9652;49.014;12.052;2022-09-01T13:16:42;98146.00;;;26.10
19040;BMP180;9652;49.014;12.052;2022-09-01T13:19:09;98119.00;;;26.00
19040;BMP180;9652;49.014;12.052;2022-09-01T13:21:36;98128.00;;;25.90
19040;BMP180;9652;49.014;12.052;2022-09-01T13:24:05;98119.00;;;25.80
19040;BMP180;9652;49.014;12.052;2022-09-01T13:26:33;98127.00;;;25.70
19040;BMP180;9652;49.014;12.052;2022-09-01T13:29:00;98132.00;;;25.70
19040;BMP180;9652;49.014;12.052;2022-09-01T13:31:27;98135.00;;;25.40
19040;BMP180;9652;49.014;12.052;2022-09-01T13:33:57;98100.00;;;25.60
19040;BMP180;9652;49.014;12.052;2022-09-01T13:36:24;98125.00;;;25.60
19040;BMP180;9652;49.014;12.052;2022-09-01T13:38:51;98134.00;;;25.50
19040;BMP180;9652;49.014;12.052;2022-09-01T13:41:20;98140.00;;;25.50
19040;BMP180;9652;49.014;12.052;2022-09-01T13:43:47;98120.00;;;25.50
19040;BMP180;9652;49.014;12.052;2022-09-01T13:46:14;98124.00;;;25.50
19040;BMP180;9652;49.014;12.052;2022-09-01T13:48:41;98120.00;;;25.60
19040;BMP180;9652;49.014;12.052;2022-09-01T13:51:09;98126.00;;;25.70
19040;BMP180;9652;49.014;12.052;2022-09-01T13:53:36;98118.00;;;25.70
19040;BMP180;9652;49.014;12.052;2022-09-01T13:56:04;98118.00;;;25.80
19040;BMP180;9652;49.014;12.052;2022-09-01T13:58:32;98094.00;;;26.00
19040;BMP180;9652;49.014;12.052;2022-09-01T14:00:59;98118.00;;;26.20
19040;BMP180;9652;49.014;12.052;2022-09-01T14:03:26;98115.00;;;26.40
19040;BMP180;9652;49.014;12.052;2022-09-01T14:05:57;98113.00;;;26.50
19040;BMP180;9652;49.014;12.052;2022-09-01T14:08:24;98115.00;;;26.60
19040;BMP180;9652;49.014;12.052;2022-09-01T14:10:53;98118.00;;;26.70
19040;BMP180;9652;49.014;12.052;2022-09-01T14:13:23;98120.00;;;26.60
19040;BMP180;9652;49.014;12.052;2022-09-01T14:15:53;98126.00;;;26.60
19040;BMP180;9652;49.014;12.052;2022-09-01T14:18:21;98081.00;;;26.50
19040;BMP180;9652;49.014;12.052;2022-09-01T14:20:50;98111.00;;;26.50
19040;BMP180;9652;49.014;12.052;2022-09-01T14:23:19;98042.00;;;26.50
19040;BMP180;9652;49.014;12.052;2022-09-01T14:25:49;98103.00;;;26.60
19040;BMP180;9652;49.014;12.052;2022-09-01T14:28:18;98103.00;;;26.80
19040;BMP180;9652;49.014;12.052;2022-09-01T14:30:47;98109.00;;;27.00
19040;BMP180;9652;49.014;12.052;2022-09-01T14:33:17;98098.00;;;27.20
19040;BMP180;9652;49.014;12.052;2022-09-01T14:35:49;98103.00;;;27.30
19040;BMP180;9652;49.014;12.052;2022-09-01T14:38:17;98104.00;;;27.50
19040;BMP180;9652;49.014;12.052;2022-09-01T14:40:47;98106.00;;;27.50
19040;BMP180;9652;49.014;12.052;2022-09-01T14:43:17;98095.00;;;27.60
19040;BMP180;9652;49.014;12.052;2022-09-01T14:45:45;98094.00;;;27.60